createdAt,value
2018-03-19T04:30:01.134Z,0.1
2018-03-19T04:32:01.088Z,0.2
2018-03-19T04:33:01.063Z,0.3
2018-03-19T04:35:01.064Z,0.4
2018-03-19T04:36:01.274Z,0.5
2018-03-19T04:37:01.117Z,0.6
2018-03-19T04:38:01.062Z,0.7
2018-03-19T04:39:01.093Z,0.9
2018-03-19T04:40:01.096Z,1.0
2018-03-19T04:41:01.280Z,1.2
2018-03-19T04:42:01.122Z,1.4
2018-03-19T04:43:01.106Z,1.7
2018-03-19T04:44:01.101Z,2.0
2018-03-19T04:45:01.098Z,2.3
2018-03-19T04:46:01.278Z,2.7
2018-03-19T04:47:01.068Z,3.2
2018-03-19T04:48:01.068Z,3.8
2018-03-19T04:49:01.095Z,4.5
2018-03-19T04:50:01.169Z,5.4
2018-03-19T04:52:01.321Z,6.7
2018-03-19T04:53:01.054Z,8.3
2018-03-19T04:54:01.152Z,10.2
2018-03-19T04:55:01.114Z,12.5
2018-03-19T04:56:01.083Z,15.4
2018-03-19T04:57:01.293Z,18.8
2018-03-19T04:58:01.066Z,22.9
2018-03-19T04:59:01.056Z,27.9
2018-03-19T05:00:01.058Z,33.7
2018-03-19T05:01:01.124Z,40.7
2018-03-19T05:02:01.311Z,48.9
2018-03-19T05:03:01.059Z,58.7
2018-03-19T05:04:01.063Z,70.3
2018-03-19T05:05:01.092Z,83.8
2018-03-19T05:06:01.098Z,99.7
2018-03-19T05:07:01.273Z,117.9
2018-03-19T05:08:01.069Z,139.0
2018-03-19T05:09:01.094Z,163.3
2018-03-19T05:10:01.067Z,191.3
2018-03-19T05:11:01.102Z,223.3
2018-03-19T05:12:01.267Z,259.7
2018-03-19T05:13:01.095Z,300.9
2018-03-19T05:14:01.071Z,347.3
2018-03-19T05:15:01.093Z,399.5
2018-03-19T05:16:01.117Z,457.9
2018-03-19T05:17:01.332Z,523.0
2018-03-19T05:18:01.069Z,595.2
2018-03-19T05:19:01.064Z,674.9
2018-03-19T05:20:01.061Z,762.8
2018-03-19T05:21:01.129Z,859.1
2018-03-19T05:22:01.212Z,964.3
2018-03-19T05:23:01.067Z,1078.9
2018-03-19T05:24:01.097Z,1203.1
2018-03-19T05:25:01.066Z,1337.5
2018-03-19T05:26:01.120Z,1482.3
2018-03-19T05:27:01.305Z,1637.9
2018-03-19T05:28:01.083Z,1804.7
2018-03-19T05:29:01.069Z,1983.3
2018-03-19T05:30:01.062Z,2174.0
2018-03-19T05:31:01.119Z,2376.6
2018-03-19T05:32:01.368Z,2591.6
2018-03-19T05:33:01.069Z,2818.8
2018-03-19T05:34:01.066Z,3058.4
2018-03-19T05:35:01.072Z,3310.0
2018-03-19T05:36:01.095Z,3573.2
2018-03-19T05:37:01.340Z,3847.7
2018-03-19T05:38:01.073Z,4133.5
2018-03-19T05:39:01.068Z,4430.1
2018-03-19T05:40:01.101Z,4737.3
2018-03-19T05:41:01.098Z,5054.5
2018-03-19T05:42:01.313Z,5381.5
2018-03-19T05:43:01.101Z,5717.3
2018-03-19T05:44:01.072Z,6060.5
2018-03-19T05:45:01.072Z,6410.2
2018-03-19T05:46:01.096Z,6767.0
2018-03-19T05:47:01.315Z,7129.3
2018-03-19T05:49:03.077Z,7523.7
2018-03-19T05:50:01.082Z,7922.5
2018-03-19T05:51:01.064Z,8325.8
2018-03-19T05:52:01.062Z,8734.0
2018-03-19T05:53:01.263Z,9145.7
2018-03-19T05:54:01.064Z,9561.2
2018-03-19T05:55:01.090Z,9980.1
2018-03-19T05:56:01.060Z,10400.7
2018-03-19T05:57:01.058Z,10822.7
2018-03-19T05:58:01.270Z,11245.4
2018-03-19T05:59:01.057Z,11668.9
2018-03-19T06:00:01.062Z,12091.0
2018-03-19T06:01:01.117Z,12513.3
2018-03-19T06:02:01.058Z,12933.8
2018-03-19T06:03:01.343Z,13352.5
2018-03-19T06:04:01.061Z,13744.8
2018-03-19T06:05:01.094Z,14146.4
2018-03-19T06:06:01.098Z,14556.3
2018-03-19T06:07:01.095Z,14951.5
2018-03-19T06:08:01.312Z,15360.9
2018-03-19T06:09:01.065Z,15795.5
2018-03-19T06:10:01.096Z,16223.3
2018-03-19T06:11:01.104Z,16617.9
2018-03-19T06:12:01.068Z,17012.5
2018-03-19T06:13:01.298Z,17401.1
2018-03-19T06:14:01.065Z,17789.2
2018-03-19T06:15:01.065Z,18195.4
2018-03-19T06:16:01.128Z,18574.4
2018-03-19T06:17:01.067Z,18930.6
2018-03-19T06:18:01.276Z,19279.0
2018-03-19T06:19:01.067Z,19647.7
2018-03-19T06:20:01.108Z,20026.2
2018-03-19T06:21:01.142Z,20380.3
2018-03-19T06:22:01.070Z,20735.7
2018-03-19T06:23:01.311Z,21063.8
2018-03-19T06:24:01.067Z,21356.9
2018-03-19T06:25:01.067Z,21637.7
2018-03-19T06:26:01.130Z,21944.4
2018-03-19T06:27:01.065Z,22248.3
2018-03-19T06:28:01.311Z,22555.9
2018-03-19T06:29:01.074Z,22855.3
2018-03-19T06:30:01.100Z,23131.0
2018-03-19T06:31:01.140Z,23437.3
2018-03-19T06:32:01.075Z,23760.2
2018-03-19T06:33:01.278Z,24078.1
2018-03-19T06:34:01.072Z,24369.5
2018-03-19T06:35:01.081Z,24636.0
2018-03-19T06:36:01.132Z,24910.3
2018-03-19T06:37:01.105Z,25199.1
2018-03-19T06:38:01.279Z,25520.0
2018-03-19T06:39:01.072Z,25837.5
2018-03-19T06:40:01.072Z,26154.4
2018-03-19T06:41:01.198Z,26481.3
2018-03-19T06:42:01.073Z,26802.5
2018-03-19T06:43:01.280Z,27117.6
2018-03-19T06:44:01.156Z,27439.3
2018-03-19T06:45:01.078Z,27787.3
2018-03-19T06:47:01.060Z,28193.3
2018-03-19T06:48:01.298Z,28661.5
2018-03-19T06:49:01.055Z,29201.4
2018-03-19T06:50:01.057Z,29728.9
2018-03-19T06:51:01.112Z,30214.7
2018-03-19T06:52:01.057Z,30661.8
2018-03-19T06:53:01.298Z,31117.5
2018-03-19T06:54:01.055Z,31600.5
2018-03-19T06:55:01.057Z,32098.9
2018-03-19T06:56:01.117Z,32754.9
2018-03-19T06:57:01.057Z,33652.6
2018-03-19T06:58:01.267Z,34720.1
2018-03-19T06:59:01.063Z,35889.1
2018-03-19T07:00:01.056Z,37145.3
2018-03-19T07:01:01.087Z,38412.1
2018-03-19T07:02:01.120Z,39651.9
2018-03-19T07:03:01.273Z,40885.7
2018-03-19T07:04:01.063Z,42077.5
2018-03-19T07:05:01.061Z,43256.3
2018-03-19T07:06:01.124Z,44517.8
2018-03-19T07:07:01.090Z,45872.5
2018-03-19T07:08:01.272Z,47261.5
2018-03-19T07:09:01.064Z,48660.8
2018-03-19T07:10:01.070Z,50126.5
2018-03-19T07:11:01.110Z,51544.5
2018-03-19T07:12:01.099Z,52822.4
2018-03-19T07:13:01.304Z,54041.4
2018-03-19T07:14:01.063Z,55284.9
2018-03-19T07:15:01.068Z,56417.0
2018-03-19T07:16:01.095Z,57493.7
2018-03-19T07:17:01.064Z,58510.5
2018-03-19T07:18:01.300Z,59452.6
2018-03-19T07:19:01.066Z,60353.9
2018-03-19T07:20:01.066Z,61259.9
2018-03-19T07:21:01.130Z,62104.8
2018-03-19T07:22:01.069Z,62876.6
2018-03-19T07:23:01.308Z,63576.9
2018-03-19T07:24:01.067Z,64194.3
2018-03-19T07:25:01.070Z,64715.3
2018-03-19T07:26:01.134Z,65118.5
2018-03-19T07:27:01.069Z,65391.3
2018-03-19T07:28:01.280Z,65535.0
2018-03-19T07:30:01.105Z,65535.0
2018-03-19T07:45:01.096Z,65535.0
2018-03-19T08:00:03.145Z,65535.0
2018-03-19T08:15:01.077Z,65535.0
2018-03-19T08:30:03.141Z,65535.0
2018-03-19T08:45:01.130Z,65535.0
2018-03-19T09:00:03.135Z,65535.0
2018-03-19T09:15:01.121Z,65535.0
2018-03-19T09:30:02.154Z,65535.0
2018-03-19T09:45:01.104Z,65535.0
2018-03-19T10:00:01.108Z,65535.0
2018-03-19T10:15:01.105Z,65535.0
2018-03-19T10:30:03.103Z,65535.0
2018-03-19T10:45:01.067Z,65535.0
2018-03-19T11:00:02.129Z,65535.0
2018-03-19T11:15:01.433Z,65535.0
2018-03-19T11:30:01.407Z,65535.0
2018-03-19T11:45:02.368Z,65535.0
2018-03-19T12:00:01.121Z,65535.0
2018-03-19T12:15:02.368Z,65535.0
2018-03-19T12:30:03.089Z,65535.0
2018-03-19T12:45:01.073Z,65535.0
2018-03-19T13:00:03.077Z,65535.0
2018-03-19T13:15:02.383Z,65535.0
2018-03-19T13:30:02.122Z,65535.0
2018-03-19T13:45:02.321Z,65535.0
2018-03-19T14:00:04.545Z,65535.0
2018-03-19T14:15:01.090Z,65535.0
2018-03-19T14:30:01.389Z,65535.0
2018-03-19T14:45:01.398Z,65535.0
2018-03-19T15:00:01.118Z,65535.0
2018-03-19T15:05:01.132Z,65122.3
2018-03-19T15:06:01.098Z,64046.6
2018-03-19T15:07:01.277Z,62742.3
2018-03-19T15:08:01.100Z,61337.5
2018-03-19T15:09:01.064Z,59894.3
2018-03-19T15:10:01.094Z,58439.8
2018-03-19T15:11:01.102Z,56961.3
2018-03-19T15:12:01.272Z,55473.7
2018-03-19T15:14:01.050Z,53953.7
2018-03-19T15:15:01.047Z,52437.9
2018-03-19T15:16:01.047Z,50916.9
2018-03-19T15:17:01.079Z,49386.4
2018-03-19T15:18:01.377Z,47845.1
2018-03-19T15:19:01.081Z,46294.1
2018-03-19T15:20:01.087Z,44715.5
2018-03-19T15:21:01.050Z,43522.7
2018-03-19T15:22:01.080Z,42989.7
2018-03-19T15:23:01.285Z,42679.1
2018-03-19T15:24:01.050Z,42449.9
2018-03-19T15:25:01.082Z,42245.5
2018-03-19T15:26:01.050Z,42051.9
2018-03-19T15:27:01.051Z,41878.0
2018-03-19T15:28:01.292Z,41703.6
2018-03-19T15:29:01.090Z,41557.4
2018-03-19T15:30:01.087Z,41399.0
2018-03-19T15:31:01.059Z,41239.5
2018-03-19T15:32:01.085Z,41079.1
2018-03-19T15:33:01.295Z,40922.1
2018-03-19T15:34:01.053Z,40772.9
2018-03-19T15:35:01.093Z,40647.4
2018-03-19T15:36:01.085Z,40549.2
2018-03-19T15:37:01.087Z,40451.3
2018-03-19T15:38:01.326Z,40352.6
2018-03-19T15:39:01.052Z,40269.1
2018-03-19T15:40:01.087Z,40199.1
2018-03-19T15:41:01.088Z,40127.0
2018-03-19T15:42:01.053Z,40054.5
2018-03-19T15:43:01.291Z,39987.8
2018-03-19T15:44:01.109Z,39923.0
2018-03-19T15:45:01.053Z,39864.9
2018-03-19T15:46:01.054Z,39814.4
2018-03-19T15:47:01.058Z,39776.7
2018-03-19T15:48:01.299Z,39757.2
2018-03-19T15:49:01.088Z,39750.5
2018-03-19T15:50:01.086Z,39759.7
2018-03-19T15:51:01.063Z,39787.6
2018-03-19T15:52:01.053Z,39845.3
2018-03-19T15:53:01.400Z,39941.0
2018-03-19T15:54:01.091Z,40074.5
2018-03-19T15:55:01.087Z,40249.1
2018-03-19T15:56:01.053Z,40470.3
2018-03-19T15:57:01.091Z,40736.3
2018-03-19T15:58:01.318Z,41048.1
2018-03-19T15:59:01.093Z,41400.7
2018-03-19T16:00:01.055Z,41788.1
2018-03-19T16:01:01.091Z,42202.1
2018-03-19T16:02:01.056Z,42636.5
2018-03-19T16:03:01.293Z,43078.7
2018-03-19T16:04:01.062Z,43526.0
2018-03-19T16:05:01.062Z,43969.5
2018-03-19T16:06:01.054Z,44400.4
2018-03-19T16:07:01.084Z,44808.6
2018-03-19T16:08:01.295Z,45187.3
2018-03-19T16:09:01.086Z,45531.3
2018-03-19T16:10:01.058Z,45829.7
2018-03-19T16:11:01.060Z,46068.6
2018-03-19T16:12:01.113Z,46249.1
2018-03-19T16:13:01.262Z,46367.7
2018-03-19T16:14:01.057Z,46418.4
2018-03-19T16:15:01.092Z,46400.3
2018-03-19T16:16:01.059Z,46316.7
2018-03-19T16:17:01.085Z,46171.9
2018-03-19T16:18:01.322Z,45968.0
2018-03-19T16:19:01.090Z,45703.0
2018-03-19T16:20:01.058Z,45393.4
2018-03-19T16:21:01.064Z,45046.1
2018-03-19T16:22:01.130Z,44664.1
2018-03-19T16:23:01.298Z,44248.3
2018-03-19T16:24:01.092Z,43801.5
2018-03-19T16:25:01.094Z,43331.2
2018-03-19T16:26:01.090Z,42845.6
2018-03-19T16:27:01.086Z,42344.5
2018-03-19T16:28:01.301Z,41825.5
2018-03-19T16:29:01.058Z,41294.3
2018-03-19T16:30:01.063Z,40751.9
2018-03-19T16:31:01.065Z,40198.9
2018-03-19T16:32:01.144Z,39632.1
2018-03-19T16:33:01.273Z,39049.7
2018-03-19T16:34:01.100Z,38453.7
2018-03-19T16:35:01.064Z,37839.4
2018-03-19T16:37:01.078Z,37163.9
2018-03-19T16:38:01.320Z,36485.8
2018-03-19T16:39:01.046Z,35815.6
2018-03-19T16:40:01.047Z,35153.3
2018-03-19T16:41:01.080Z,34490.7
2018-03-19T16:42:01.053Z,33830.2
2018-03-19T16:43:01.314Z,33175.8
2018-03-19T16:44:01.077Z,32530.6
2018-03-19T16:45:01.049Z,31886.3
2018-03-19T16:46:01.045Z,31261.5
2018-03-19T16:47:01.047Z,30620.7
2018-03-19T16:48:01.286Z,29971.0
2018-03-19T16:49:01.045Z,29318.9
2018-03-19T16:50:01.079Z,28698.9
2018-03-19T16:51:01.055Z,28076.3
2018-03-19T16:52:01.082Z,27496.0
2018-03-19T16:53:01.284Z,26889.7
2018-03-19T16:54:01.081Z,26241.6
2018-03-19T16:55:01.049Z,25522.5
2018-03-19T16:56:01.047Z,24753.4
2018-03-19T16:57:01.053Z,23926.3
2018-03-19T16:58:01.282Z,23073.8
2018-03-19T16:59:01.047Z,22202.5
2018-03-19T17:00:01.079Z,21315.6
2018-03-19T17:01:01.053Z,20380.7
2018-03-19T17:02:01.084Z,19463.8
2018-03-19T17:03:01.383Z,18604.5
2018-03-19T17:04:01.088Z,17796.5
2018-03-19T17:05:01.085Z,17009.7
2018-03-19T17:06:01.052Z,16259.0
2018-03-19T17:07:01.059Z,15522.6
2018-03-19T17:08:01.300Z,14819.6
2018-03-19T17:09:01.088Z,14151.1
2018-03-19T17:10:01.053Z,13545.8
2018-03-19T17:11:01.054Z,12978.8
2018-03-19T17:12:01.090Z,12461.4
2018-03-19T17:13:01.336Z,11957.1
2018-03-19T17:14:01.092Z,11462.7
2018-03-19T17:15:01.085Z,10982.2
2018-03-19T17:16:01.085Z,10537.7
2018-03-19T17:17:01.052Z,10124.5
2018-03-19T17:18:01.324Z,9691.4
2018-03-19T17:19:01.088Z,9230.8
2018-03-19T17:20:01.092Z,8748.1
2018-03-19T17:21:01.055Z,8262.5
2018-03-19T17:22:01.058Z,7790.1
2018-03-19T17:23:01.316Z,7322.0
2018-03-19T17:24:01.087Z,6866.1
2018-03-19T17:25:01.057Z,6424.3
2018-03-19T17:26:01.186Z,6005.7
2018-03-19T17:27:01.053Z,5607.7
2018-03-19T17:28:01.272Z,5234.0
2018-03-19T17:29:01.057Z,4882.9
2018-03-19T17:30:01.054Z,4559.6
2018-03-19T17:31:01.087Z,4260.6
2018-03-19T17:32:01.087Z,3960.5
2018-03-19T17:33:01.296Z,3669.1
2018-03-19T17:34:01.058Z,3397.9
2018-03-19T17:35:01.092Z,3140.2
2018-03-19T17:36:01.055Z,2894.6
2018-03-19T17:37:01.055Z,2661.2
2018-03-19T17:38:01.326Z,2439.5
2018-03-19T17:39:01.121Z,2228.7
2018-03-19T17:40:01.058Z,2030.1
2018-03-19T17:41:01.093Z,1845.1
2018-03-19T17:42:01.062Z,1672.2
2018-03-19T17:43:01.305Z,1509.5
2018-03-19T17:44:01.109Z,1356.6
2018-03-19T17:45:01.100Z,1215.2
2018-03-19T17:46:01.059Z,1084.9
2018-03-19T17:47:01.060Z,966.5
2018-03-19T17:48:01.308Z,857.7
2018-03-19T17:49:01.069Z,759.7
2018-03-19T17:50:01.060Z,672.7
2018-03-19T17:51:01.061Z,595.1
2018-03-19T17:52:01.060Z,526.1
2018-03-19T17:53:01.332Z,465.2
2018-03-19T17:54:01.059Z,410.9
2018-03-19T17:55:01.064Z,360.9
2018-03-19T17:56:01.066Z,314.5
2018-03-19T17:57:01.096Z,271.6
2018-03-19T17:58:01.311Z,233.4
2018-03-19T17:59:01.070Z,200.1
2018-03-19T18:00:01.099Z,169.3
2018-03-19T18:01:01.098Z,141.7
2018-03-19T18:02:01.067Z,117.5
2018-03-19T18:03:01.328Z,98.1
2018-03-19T18:04:01.097Z,82.3
2018-03-19T18:05:01.098Z,69.2
2018-03-19T18:06:01.068Z,58.4
2018-03-19T18:07:01.066Z,49.4
2018-03-19T18:08:01.299Z,42.0
2018-03-19T18:09:01.110Z,36.1
2018-03-19T18:10:01.098Z,31.2
2018-03-19T18:11:01.067Z,26.2
2018-03-19T18:12:01.109Z,21.9
2018-03-19T18:13:01.347Z,18.3
2018-03-19T18:14:01.096Z,15.2
2018-03-19T18:15:01.103Z,12.5
2018-03-19T18:16:01.103Z,10.3
2018-03-19T18:17:01.098Z,8.7
2018-03-19T18:18:01.305Z,7.2
2018-03-19T18:19:01.133Z,5.9
2018-03-19T18:20:01.065Z,4.9
2018-03-19T18:22:01.051Z,4.1
2018-03-19T18:23:01.258Z,3.3
2018-03-19T18:24:01.050Z,2.8
2018-03-19T18:25:01.258Z,2.4
2018-03-19T18:26:01.086Z,2.2
2018-03-19T18:27:01.103Z,2.0
2018-03-19T18:28:01.264Z,1.8
2018-03-19T18:29:01.094Z,1.5
2018-03-19T18:30:01.089Z,1.3
2018-03-19T18:31:01.083Z,1.1
2018-03-19T18:32:01.059Z,0.9
2018-03-19T18:33:01.426Z,0.7
2018-03-19T18:34:01.054Z,0.6
2018-03-19T18:35:01.089Z,0.5
2018-03-19T18:37:01.122Z,0.4
2018-03-19T18:38:01.265Z,0.3
2018-03-19T18:40:02.161Z,0.2
2018-03-19T18:41:01.093Z,0.1
